Accueil
METAR-TAF:

METAR-TAF

Aéroports :

Alpnach, Suisse

latitude: 46-56-19N, longitude: 8-17-03E, altitude: 440 m

Observation

Le bulletin a été fait il y a 38 minutes, à 04:50 UTC
Vent 3 kt de ouest/sud-ouest, variant entre sud/sud-ouest et ouest
Température -2°C
Humidité 86%
Pression 1031 hPa
Visibilité 10 km ou plus

METAR: LSMA 160450Z AUTO 24003KT 210V270 9999NDV NCD M02/M04 Q1031 RMK

Heure: 06:28 (05:28 UTC)


TAF: absent

Observations et prévisions météorologiques de plus de 4000 aéroports (messages METAR et TAF).

Les stations disponibles sont représentées par des disques jaunes et rouges sur la carte.

Passer la souris dessus pour voir le nom de la station.

Cliquer dessus pour voir les observations et prévisions météorologiques.

Pour changer de carte: cliquez sur les boutons verts avec une croix noire pour zoomer, sur le bouton vert avec un tiret pour effectuer un zoom arrière, ou sur les flèches vertes pour les cartes adjacentes.


METAR-TAF: